Kemi, Kemi Tornio Airport (EFKE)

NameKemi Tornio Airport
CityKemi
CountryFinland
ICAOEFKE
IATAKEM
Altitude19 m
CoordinatesGoogle Map
Live Air TrafficLiveATC.net
METAREFKE 251720Z AUTO 33011KT 310V020 9999 SCT039 BKN084 03/M03 Q0996
2020-04-25 17:20:00 Wind: Northwest (330°) 5.66 m/s - Visibility: > 10000 m - Temperature: 3 °C - Dew point: -3 °C - Humidity: 65.1% - Pressure: 0996 hPa
Statistics

The table below shows the detailed information of all flights to/from Kemi, Kemi Tornio Airport (EFKE).